createdAt,value
2018-07-21T00:00:04.842Z,68.55
2018-07-21T00:01:19.335Z,68.84
2018-07-21T00:02:33.539Z,69.13
2018-07-21T00:03:47.970Z,69.04
2018-07-21T00:05:02.196Z,69.62
2018-07-21T00:06:16.376Z,70.29
2018-07-21T00:07:30.571Z,70.78
2018-07-21T00:08:45.315Z,71.22
2018-07-21T00:09:59.910Z,70.64
2018-07-21T00:11:14.639Z,71.12
2018-07-21T00:12:28.833Z,71.03
2018-07-21T00:13:42.766Z,70.84
2018-07-21T00:14:57.841Z,70.54
2018-07-21T00:16:12.261Z,70.64
2018-07-21T00:17:26.692Z,70.06
2018-07-21T00:18:41.389Z,69.87
2018-07-21T00:19:55.711Z,69.97
2018-07-21T00:21:10.166Z,70.16
2018-07-21T00:22:24.865Z,69.87
2018-07-21T00:23:39.054Z,70.36
2018-07-21T00:24:53.233Z,70.26
2018-07-21T00:26:07.429Z,70.45
2018-07-21T00:27:21.355Z,70.36
2018-07-21T00:28:35.790Z,70.54
2018-07-21T00:29:49.982Z,70.54
2018-07-21T00:31:04.886Z,70.64
2018-07-21T00:32:19.583Z,70.58
2018-07-21T00:33:34.020Z,70.54
2018-07-21T00:34:48.434Z,70.06
2018-07-21T00:36:03.058Z,70.74
2018-07-21T00:37:16.991Z,70.84
2018-07-21T00:38:31.394Z,71.03
2018-07-21T00:39:46.322Z,71.8
2018-07-21T00:41:00.867Z,72.28
2018-07-21T00:42:15.088Z,72.28
2018-07-21T00:43:29.568Z,72.86
2018-07-21T00:44:44.036Z,73.25
2018-07-21T00:45:58.822Z,74.12
2018-07-21T00:47:13.504Z,74.57
2018-07-21T00:48:28.451Z,74.66
2018-07-21T00:49:42.417Z,74.47
2018-07-21T00:50:57.554Z,74.95
2018-07-21T00:52:11.990Z,75.05
2018-07-21T00:53:26.699Z,76.01
2018-07-21T00:54:41.387Z,76.26
2018-07-21T00:55:56.724Z,76.26
2018-07-21T00:57:11.681Z,76.65
2018-07-21T00:58:26.392Z,76.65
2018-07-21T00:59:40.863Z,76.84
2018-07-21T01:00:55.418Z,76.75
2018-07-21T01:02:09.382Z,76.55
2018-07-21T01:03:23.867Z,76.65
2018-07-21T01:04:38.080Z,77.42
2018-07-21T01:05:52.842Z,77.33
2018-07-21T01:07:07.537Z,77.23
2018-07-21T01:08:22.010Z,77.9
2018-07-21T01:09:36.726Z,76.93
2018-07-21T01:10:51.171Z,76.65
2018-07-21T01:12:06.057Z,77.13
2018-07-21T01:13:19.976Z,77.42
2018-07-21T01:14:34.180Z,77.58
2018-07-21T01:15:48.649Z,77.9
2018-07-21T01:17:03.133Z,78
2018-07-21T01:18:17.822Z,78.15
2018-07-21T01:19:32.042Z,78.54
2018-07-21T01:20:47.016Z,78.44
2018-07-21T01:22:02.023Z,77.58
2018-07-21T01:23:16.726Z,77.58
2018-07-21T01:24:31.444Z,77.38
2018-07-21T01:25:46.427Z,77.09
2018-07-21T01:27:00.776Z,76.8
2018-07-21T01:28:15.426Z,76.9
2018-07-21T01:29:29.845Z,76.71
2018-07-21T01:30:44.551Z,76.71
2018-07-21T01:31:59.464Z,77.58
2018-07-21T01:33:14.706Z,77.48
2018-07-21T01:34:29.158Z,78.15
2018-07-21T01:35:43.082Z,78.25
2018-07-21T01:36:56.761Z,78.06
2018-07-21T01:38:11.219Z,78.34
2018-07-21T01:39:25.179Z,78.34
2018-07-21T01:40:39.843Z,78.25
2018-07-21T01:41:54.546Z,77.67
2018-07-21T01:43:09.459Z,77.38
2018-07-21T01:44:24.174Z,78.06
2018-07-21T01:45:38.125Z,78.63
2018-07-21T01:46:53.273Z,79.21
2018-07-21T01:48:08.147Z,78.73
2018-07-21T01:49:22.839Z,78.83
2018-07-21T01:50:37.039Z,78.83
2018-07-21T01:51:51.234Z,78.83
2018-07-21T01:53:05.563Z,78.73
2018-07-21T01:54:20.055Z,78.44
2018-07-21T01:55:34.505Z,78.25
2018-07-21T01:56:48.708Z,78.73
2018-07-21T01:58:03.427Z,78.54
2018-07-21T01:59:17.868Z,78.25
2018-07-21T02:00:31.809Z,77.96
2018-07-21T02:01:46.015Z,77.86
2018-07-21T02:03:00.488Z,78.25
2018-07-21T02:04:15.196Z,78.06
2018-07-21T02:05:29.614Z,78.44
2018-07-21T02:06:43.786Z,78.54
2018-07-21T02:07:57.995Z,79.31
2018-07-21T02:09:12.751Z,79.79
2018-07-21T02:10:26.915Z,80.08
2018-07-21T02:11:41.880Z,80.27
2018-07-21T02:12:56.553Z,80.85
2018-07-21T02:14:11.416Z,81.33
2018-07-21T02:15:25.851Z,82.1
2018-07-21T02:16:40.024Z,82.1
2018-07-21T02:17:54.512Z,81.81
2018-07-21T02:19:09.264Z,82.78
2018-07-21T02:20:23.983Z,83.03
2018-07-21T02:21:38.457Z,83.16
2018-07-21T02:22:52.947Z,83.07
2018-07-21T02:24:08.266Z,83.74
2018-07-21T02:25:22.699Z,83.94
2018-07-21T02:26:36.643Z,83.74
2018-07-21T02:27:51.363Z,83.64
2018-07-21T02:29:06.088Z,83.74
2018-07-21T02:30:20.558Z,83.94
2018-07-21T02:31:34.985Z,83.45
2018-07-21T02:32:48.919Z,83.94
2018-07-21T02:34:03.618Z,84.22
2018-07-21T02:35:17.380Z,84.42
2018-07-21T02:36:32.300Z,84.22
2018-07-21T02:37:46.943Z,84.52
2018-07-21T02:39:01.914Z,84.9
2018-07-21T02:40:16.078Z,85.77
2018-07-21T02:41:31.056Z,85.86
2018-07-21T02:42:46.020Z,86.82
2018-07-21T02:44:00.214Z,86.82
2018-07-21T02:45:15.250Z,86.92
2018-07-21T02:46:29.948Z,88.17
2018-07-21T02:47:44.663Z,88.08
2018-07-21T02:48:59.110Z,88.27
2018-07-21T02:50:13.456Z,88.56
2018-07-21T02:51:27.669Z,88.85
2018-07-21T02:52:42.409Z,89.72
2018-07-21T02:53:56.591Z,90.68
2018-07-21T02:55:10.866Z,89.81
2018-07-21T02:56:25.354Z,90
2018-07-21T02:57:40.325Z,90.3
2018-07-21T02:58:54.828Z,91.06
2018-07-21T03:00:08.805Z,90.83
2018-07-21T03:01:23.481Z,91.06
2018-07-21T03:02:37.680Z,91.83
2018-07-21T03:03:52.111Z,92.32
2018-07-21T03:05:06.566Z,92.41
2018-07-21T03:06:21.079Z,92.9
2018-07-21T03:07:35.546Z,92.9
2018-07-21T03:08:49.972Z,92.8
2018-07-21T03:10:04.495Z,92.66
2018-07-21T03:11:19.004Z,92.41
2018-07-21T03:12:33.455Z,92.22
2018-07-21T03:13:47.937Z,92.51
2018-07-21T03:15:02.644Z,92.71
2018-07-21T03:16:17.407Z,92.71
2018-07-21T03:17:31.826Z,92.41
2018-07-21T03:18:46.245Z,92.71
2018-07-21T03:19:59.956Z,93.48
2018-07-21T03:21:15.044Z,93.57
2018-07-21T03:22:29.730Z,94.24
2018-07-21T03:23:44.447Z,94.92
2018-07-21T03:24:58.380Z,96.03
2018-07-21T03:26:13.165Z,96.32
2018-07-21T03:27:27.658Z,96.32
2018-07-21T03:28:42.118Z,96.46
2018-07-21T03:29:56.292Z,96.94
2018-07-21T03:31:10.751Z,97.24
2018-07-21T03:32:25.207Z,97.81
2018-07-21T03:33:40.162Z,97.81
2018-07-21T03:34:54.607Z,97.57
2018-07-21T03:36:09.324Z,98.49
2018-07-21T03:37:23.514Z,98.97
2018-07-21T03:38:37.964Z,98.97
2018-07-21T03:39:52.604Z,99.93
2018-07-21T03:41:07.586Z,99.99
2018-07-21T03:42:21.589Z,99.99
2018-07-21T03:43:35.265Z,99.99
2018-07-21T03:44:49.975Z,99.99
2018-07-21T03:46:04.461Z,99.99
2018-07-21T03:47:19.059Z,99.99
2018-07-21T03:48:33.497Z,99.99
2018-07-21T03:49:48.187Z,99.99
2018-07-21T03:51:02.639Z,99.99
2018-07-21T03:52:17.209Z,99.99
2018-07-21T03:53:31.885Z,99.99
2018-07-21T03:54:45.840Z,99.74
2018-07-21T03:55:59.965Z,99.93
2018-07-21T03:57:14.544Z,99.26
2018-07-21T03:58:28.991Z,98.97
2018-07-21T03:59:43.475Z,98.54
2018-07-21T04:00:57.930Z,98.15
2018-07-21T04:02:12.625Z,97.47
2018-07-21T04:03:27.078Z,98.05
2018-07-21T04:04:42.035Z,96.22
2018-07-21T04:05:56.491Z,94.29
2018-07-21T04:07:10.964Z,92.89
2018-07-21T04:08:25.745Z,91.74
2018-07-21T04:09:39.960Z,90.29
2018-07-21T04:10:54.677Z,90.38
2018-07-21T04:12:09.367Z,89.61
2018-07-21T04:13:23.716Z,89.61
2018-07-21T04:14:38.443Z,90.19
2018-07-21T04:15:52.627Z,90.09
2018-07-21T04:17:07.083Z,89.32
2018-07-21T04:18:22.032Z,89.03
2018-07-21T04:19:36.974Z,88.75
2018-07-21T04:20:51.672Z,88.55
2018-07-21T04:22:05.945Z,88.07
2018-07-21T04:23:20.498Z,87.78
2018-07-21T04:24:34.934Z,87.1
2018-07-21T04:25:49.364Z,87.4
2018-07-21T04:27:03.790Z,86.82
2018-07-21T04:28:18.497Z,86.91
2018-07-21T04:29:32.677Z,87.2
2018-07-21T04:30:47.381Z,87.2
2018-07-21T04:32:02.099Z,85.94
2018-07-21T04:33:16.577Z,86.52
2018-07-21T04:34:31.305Z,86.04
2018-07-21T04:35:45.746Z,86.62
2018-07-21T04:37:00.411Z,86.72
2018-07-21T04:38:15.508Z,86.14
2018-07-21T04:39:30.124Z,86.04
2018-07-21T04:40:44.048Z,86.14
2018-07-21T04:41:58.994Z,85.94
2018-07-21T04:43:13.390Z,85.85
2018-07-21T04:44:28.123Z,86.72
2018-07-21T04:45:42.780Z,86.62
2018-07-21T04:46:57.198Z,86.72
2018-07-21T04:48:11.632Z,86.43
2018-07-21T04:49:26.273Z,86.24
2018-07-21T04:50:40.488Z,86.72
2018-07-21T04:51:54.703Z,86.72
2018-07-21T04:53:09.137Z,87.15
2018-07-21T04:54:23.850Z,86.52
2018-07-21T04:55:38.286Z,86.96
2018-07-21T04:56:52.998Z,86.38
2018-07-21T04:58:07.697Z,86.57
2018-07-21T04:59:22.414Z,87.15
2018-07-21T05:00:36.727Z,87.05
2018-07-21T05:01:51.489Z,86.18
2018-07-21T05:03:05.936Z,86.18
2018-07-21T05:04:20.497Z,85.64
2018-07-21T05:05:35.692Z,85.41
2018-07-21T05:06:50.417Z,85.55
2018-07-21T05:08:05.171Z,84.44
2018-07-21T05:09:19.634Z,84.39
2018-07-21T05:10:34.010Z,83.42
2018-07-21T05:11:48.878Z,83.33
2018-07-21T05:13:03.353Z,82.94
2018-07-21T05:14:17.783Z,82.56
2018-07-21T05:15:32.204Z,82.26
2018-07-21T05:16:46.371Z,81.88
2018-07-21T05:18:01.050Z,81.88
2018-07-21T05:19:15.241Z,81.55
2018-07-21T05:20:30.268Z,81.59
2018-07-21T05:21:44.993Z,81.11
2018-07-21T05:22:59.188Z,80.72
2018-07-21T05:24:13.115Z,80.62
2018-07-21T05:25:27.379Z,80.91
2018-07-21T05:26:41.889Z,80.43
2018-07-21T05:27:56.321Z,80.43
2018-07-21T05:29:11.022Z,80.24
2018-07-21T05:30:25.910Z,79.85
2018-07-21T05:31:40.359Z,80.33
2018-07-21T05:32:53.781Z,80.53
2018-07-21T05:34:08.245Z,80.05
2018-07-21T05:35:22.732Z,80.24
2018-07-21T05:36:37.738Z,80.33
2018-07-21T05:37:52.181Z,80.33
2018-07-21T05:39:06.973Z,80.24
2018-07-21T05:40:21.330Z,79.75
2018-07-21T05:41:35.760Z,79.75
2018-07-21T05:42:50.545Z,79.31
2018-07-21T05:44:05.569Z,78.83
2018-07-21T05:45:20.257Z,77.71
2018-07-21T05:46:34.855Z,77.03
2018-07-21T05:47:49.802Z,76.97
2018-07-21T05:49:04.238Z,75.91
2018-07-21T05:50:18.951Z,75.27
2018-07-21T05:51:33.121Z,74.4
2018-07-21T05:52:47.292Z,74.15
2018-07-21T05:54:01.988Z,74.05
2018-07-21T05:55:16.458Z,74.15
2018-07-21T05:56:30.197Z,73.18
2018-07-21T05:57:44.667Z,72.53
2018-07-21T05:58:58.621Z,72.34
2018-07-21T06:00:12.849Z,72.05
2018-07-21T06:01:27.654Z,71.8
2018-07-21T06:02:42.106Z,71.31
2018-07-21T06:03:56.274Z,71.8
2018-07-21T06:05:10.998Z,71.6
2018-07-21T06:06:25.333Z,70.54
2018-07-21T06:07:39.535Z,70.76
2018-07-21T06:08:53.219Z,70.96
2018-07-21T06:10:07.419Z,70.67
2018-07-21T06:11:21.641Z,70.18
2018-07-21T06:12:36.210Z,70.28
2018-07-21T06:13:51.180Z,70.09
2018-07-21T06:15:05.877Z,69.64
2018-07-21T06:16:20.834Z,69.93
2018-07-21T06:17:35.830Z,69.93
2018-07-21T06:18:50.163Z,70.03
2018-07-21T06:20:05.228Z,69.93
2018-07-21T06:21:19.926Z,69.83
2018-07-21T06:22:34.390Z,69.34
2018-07-21T06:23:49.313Z,69.09
2018-07-21T06:25:04.307Z,69.06
2018-07-21T06:26:19.405Z,69.15
2018-07-21T06:27:33.541Z,68.51
2018-07-21T06:28:47.948Z,68.12
2018-07-21T06:30:02.480Z,67.63
2018-07-21T06:31:16.947Z,68.15
2018-07-21T06:32:31.361Z,68.25
2018-07-21T06:33:45.825Z,67.86
2018-07-21T06:35:00.049Z,67.92
2018-07-21T06:36:14.508Z,67.44
2018-07-21T06:37:29.115Z,67.28
2018-07-21T06:38:43.821Z,66.99
2018-07-21T06:39:58.010Z,66.4
2018-07-21T06:41:12.738Z,65.82
2018-07-21T06:42:27.120Z,66.02
2018-07-21T06:43:41.973Z,65.63
2018-07-21T06:44:56.581Z,65.01
2018-07-21T06:46:10.776Z,65.11
2018-07-21T06:47:25.708Z,65.2
2018-07-21T06:48:40.610Z,65.89
2018-07-21T06:49:55.580Z,66.53
2018-07-21T06:51:11.007Z,66.63
2018-07-21T06:52:24.923Z,66.44
2018-07-21T06:53:39.479Z,66.37
2018-07-21T06:54:54.202Z,66.76
2018-07-21T06:56:09.358Z,67.02
2018-07-21T06:57:23.791Z,67.99
2018-07-21T06:58:38.234Z,68.57
2018-07-21T06:59:52.947Z,69.15
2018-07-21T07:01:07.393Z,68.92
2018-07-21T07:02:21.868Z,69.12
2018-07-21T07:03:36.590Z,68.92
2018-07-21T07:04:50.304Z,68.34
2018-07-21T07:06:05.012Z,69.41
2018-07-21T07:07:19.478Z,69.12
2018-07-21T07:08:34.631Z,69.7
2018-07-21T07:09:49.105Z,69.37
2018-07-21T07:11:03.309Z,69.37
2018-07-21T07:12:18.183Z,69.02
2018-07-21T07:13:33.269Z,69.41
2018-07-21T07:14:47.829Z,69.31
2018-07-21T07:16:02.602Z,69.6
2018-07-21T07:17:16.852Z,70.44
2018-07-21T07:18:31.044Z,69.67
2018-07-21T07:19:52.062Z,69.37
2018-07-21T07:21:05.778Z,68.92
2018-07-21T07:22:20.209Z,69.21
2018-07-21T07:23:35.358Z,68.73
2018-07-21T07:24:49.843Z,68.44
2018-07-21T07:26:04.297Z,69.21
2018-07-21T07:27:18.481Z,69.31
2018-07-21T07:28:33.331Z,69.02
2018-07-21T07:29:47.880Z,68.92
2018-07-21T07:31:02.578Z,69.41
2018-07-21T07:32:17.003Z,68.82
2018-07-21T07:33:31.180Z,68.34
2018-07-21T07:34:46.379Z,67.85
2018-07-21T07:36:01.348Z,67.99
2018-07-21T07:37:16.093Z,67.89
2018-07-21T07:38:30.557Z,68.08
2018-07-21T07:39:45.576Z,67.89
2018-07-21T07:40:59.986Z,67.69
2018-07-21T07:42:14.936Z,67.6
2018-07-21T07:43:29.978Z,67.69
2018-07-21T07:44:44.910Z,66.86
2018-07-21T07:45:59.873Z,66.86
2018-07-21T07:47:14.087Z,67.05
2018-07-21T07:48:28.605Z,67.21
2018-07-21T07:49:43.004Z,67.83
2018-07-21T07:50:57.682Z,67.69
2018-07-21T07:52:12.127Z,66.95
2018-07-21T07:53:26.620Z,66.56
2018-07-21T07:54:41.309Z,66.37
2018-07-21T07:55:55.540Z,66.37
2018-07-21T07:57:10.288Z,66.66
2018-07-21T07:58:24.979Z,67.54
2018-07-21T07:59:39.766Z,67.69
2018-07-21T08:00:54.492Z,67.14
2018-07-21T08:02:08.979Z,66.76
2018-07-21T08:03:23.924Z,66.3
2018-07-21T08:04:38.596Z,66.11
2018-07-21T08:05:53.565Z,65.53
2018-07-21T08:07:08.320Z,66.05
2018-07-21T08:08:23.448Z,66.02
2018-07-21T08:09:39.018Z,65.33
2018-07-21T08:10:53.712Z,65.43
2018-07-21T08:12:08.457Z,65.63
2018-07-21T08:13:22.903Z,65.53
2018-07-21T08:14:37.363Z,65.33
2018-07-21T08:15:51.962Z,65.43
2018-07-21T08:17:06.136Z,65.17
2018-07-21T08:18:20.482Z,65.27
2018-07-21T08:19:34.954Z,65.27
2018-07-21T08:20:49.450Z,65.2
2018-07-21T08:22:03.908Z,64.81
2018-07-21T08:23:18.626Z,64.53
2018-07-21T08:24:33.117Z,63.97
2018-07-21T08:25:47.835Z,63.49
2018-07-21T08:27:02.607Z,63.68
2018-07-21T08:28:17.714Z,63.49
2018-07-21T08:29:32.860Z,63
2018-07-21T08:30:47.420Z,63.2
2018-07-21T08:32:01.643Z,63.59
2018-07-21T08:33:15.851Z,62.81
2018-07-21T08:34:30.303Z,62.81
2018-07-21T08:35:45.773Z,62.71
2018-07-21T08:37:00.457Z,62.41
2018-07-21T08:38:15.187Z,62.81
2018-07-21T08:39:29.920Z,63
2018-07-21T08:40:44.517Z,62.23
2018-07-21T08:41:59.456Z,62.61
2018-07-21T08:43:13.417Z,62.51
2018-07-21T08:44:28.370Z,62.9
2018-07-21T08:45:44.528Z,62.81
2018-07-21T08:46:59.285Z,62.81
2018-07-21T08:48:13.789Z,62.13
2018-07-21T08:49:28.269Z,62.93
2018-07-21T08:50:43.279Z,63.49
2018-07-21T08:51:57.794Z,63.9
2018-07-21T08:53:11.791Z,63.81
2018-07-21T08:54:26.539Z,64.39
2018-07-21T08:55:40.797Z,64.69
2018-07-21T08:56:55.477Z,64.78
2018-07-21T08:58:09.958Z,64.78
2018-07-21T08:59:24.677Z,65.66
2018-07-21T09:00:38.887Z,67.57
2018-07-21T09:01:53.003Z,67.47
2018-07-21T09:03:07.512Z,67.93
2018-07-21T09:04:22.024Z,67.73
2018-07-21T09:05:36.034Z,68.7
2018-07-21T09:06:50.776Z,69.29
2018-07-21T09:08:04.984Z,70.12
2018-07-21T09:09:19.450Z,70.03
2018-07-21T09:10:33.925Z,70.57
2018-07-21T09:11:48.747Z,70.67
2018-07-21T09:13:02.982Z,71.55
2018-07-21T09:14:17.589Z,72.13
2018-07-21T09:15:32.325Z,71.26
2018-07-21T09:16:47.119Z,71.26
2018-07-21T09:18:01.367Z,71.74
2018-07-21T09:19:15.568Z,71.61
2018-07-21T09:20:30.356Z,71.61
2018-07-21T09:21:45.203Z,72.09
2018-07-21T09:22:59.625Z,71.8
2018-07-21T09:24:14.344Z,71.42
2018-07-21T09:25:29.062Z,71.77
2018-07-21T09:26:43.798Z,71.86
2018-07-21T09:27:58.256Z,71.67
2018-07-21T09:29:12.846Z,71.67
2018-07-21T09:30:27.559Z,71.48
2018-07-21T09:31:42.016Z,72.64
2018-07-21T09:32:56.950Z,72.45
2018-07-21T09:34:11.488Z,72.51
2018-07-21T09:35:26.005Z,73.09
2018-07-21T09:36:40.479Z,72.99
2018-07-21T09:37:55.057Z,72.8
2018-07-21T09:39:09.779Z,72.61
2018-07-21T09:40:24.771Z,73.28
2018-07-21T09:41:38.989Z,73.77
2018-07-21T09:42:53.902Z,73.86
2018-07-21T09:44:08.385Z,73.58
2018-07-21T09:45:23.170Z,73.58
2018-07-21T09:46:37.875Z,74.16
2018-07-21T09:47:52.671Z,74.74
2018-07-21T09:49:06.944Z,75.67
2018-07-21T09:50:21.353Z,76.25
2018-07-21T09:51:36.375Z,75.48
2018-07-21T09:52:50.957Z,75.87
2018-07-21T09:54:05.175Z,76.06
2018-07-21T09:55:19.129Z,76.15
2018-07-21T09:56:33.882Z,76.06
2018-07-21T09:57:48.574Z,77.06
2018-07-21T09:59:02.836Z,78.77
2018-07-21T10:00:17.306Z,78.64
2018-07-21T10:01:31.608Z,78.44
2018-07-21T10:02:46.134Z,78.15
2018-07-21T10:04:00.937Z,78.87
2018-07-21T10:05:15.133Z,78.19
2018-07-21T10:06:29.822Z,79.25
2018-07-21T10:07:44.790Z,79.64
2018-07-21T10:08:58.927Z,80.62
2018-07-21T10:10:13.388Z,80.77
2018-07-21T10:11:28.392Z,81.05
2018-07-21T10:12:43.375Z,81.45
2018-07-21T10:13:58.246Z,80.82
2018-07-21T10:15:12.724Z,80.28
2018-07-21T10:16:26.678Z,79.22
2018-07-21T10:17:41.142Z,78.05
2018-07-21T10:18:55.917Z,77.19
2018-07-21T10:20:10.672Z,76.99
2018-07-21T10:21:25.181Z,77.57
2018-07-21T10:22:39.136Z,78.74
2018-07-21T10:23:53.780Z,78.54
2018-07-21T10:25:08.478Z,79.22
2018-07-21T10:26:27.435Z,79.5
2018-07-21T10:27:41.914Z,81.64
2018-07-21T10:28:56.613Z,82.37
2018-07-21T10:30:11.467Z,83.48
2018-07-21T10:31:26.066Z,84.11
2018-07-21T10:32:40.569Z,85.31
2018-07-21T10:33:55.638Z,87.89
2018-07-21T10:35:09.868Z,90.31
2018-07-21T10:36:24.591Z,90.46
2018-07-21T10:37:38.842Z,91.04
2018-07-21T10:38:54.453Z,91.91
2018-07-21T10:40:08.896Z,93.94
2018-07-21T10:41:23.721Z,95.87
2018-07-21T10:42:38.212Z,96.7
2018-07-21T10:43:53.184Z,98.25
2018-07-21T10:45:07.895Z,99.99
2018-07-21T10:46:22.918Z,99.07
2018-07-21T10:47:36.903Z,99.11
2018-07-21T10:48:51.383Z,99.99
2018-07-21T10:50:05.967Z,99.99
2018-07-21T10:51:20.158Z,99.99
2018-07-21T10:52:35.090Z,99.99
2018-07-21T10:53:49.866Z,99.99
2018-07-21T10:55:04.270Z,99.99
2018-07-21T10:56:19.224Z,99.99
2018-07-21T10:57:34.161Z,99.99
2018-07-21T10:58:49.152Z,99.99
2018-07-21T11:00:03.568Z,99.99
2018-07-21T11:01:18.713Z,99.99
2018-07-21T11:02:33.448Z,99.99
2018-07-21T11:03:47.926Z,99.99
2018-07-21T11:05:02.540Z,99.99
2018-07-21T11:06:17.694Z,99.99
2018-07-21T11:07:32.129Z,99.99
2018-07-21T11:08:47.078Z,99.99
2018-07-21T11:10:01.715Z,99.99
2018-07-21T11:11:16.241Z,99.99
2018-07-21T11:12:30.972Z,99.99
2018-07-21T11:13:45.941Z,99.99
2018-07-21T11:15:00.676Z,99.99
2018-07-21T11:16:16.141Z,99.99
2018-07-21T11:17:31.104Z,99.99
2018-07-21T11:18:45.318Z,99.99
2018-07-21T11:20:00.025Z,99.99
2018-07-21T11:21:15.061Z,99.99
2018-07-21T11:22:29.530Z,99.99
2018-07-21T11:23:44.461Z,99.99
2018-07-21T11:24:59.689Z,99.99
2018-07-21T11:26:14.182Z,99.99
2018-07-21T11:27:28.656Z,99.99
2018-07-21T11:28:42.867Z,99.99
2018-07-21T11:29:57.104Z,99.99
2018-07-21T11:31:11.970Z,99.99
2018-07-21T11:32:26.444Z,99.99
2018-07-21T11:33:40.936Z,99.99
2018-07-21T11:34:55.437Z,99.99
2018-07-21T11:36:10.558Z,99.99
2018-07-21T11:37:26.443Z,99.99
2018-07-21T11:38:40.919Z,99.99
2018-07-21T11:39:55.214Z,99.99
2018-07-21T11:41:09.757Z,99.99
2018-07-21T11:42:24.220Z,99.99
2018-07-21T11:43:38.683Z,99.99
2018-07-21T11:44:53.417Z,99.99
2018-07-21T11:46:07.599Z,99.99
2018-07-21T11:47:21.753Z,99.99
2018-07-21T11:48:36.501Z,99.99
2018-07-21T11:49:51.501Z,99.99
2018-07-21T11:51:06.375Z,99.99
2018-07-21T11:52:21.117Z,99.99
2018-07-21T11:53:35.620Z,99.99
2018-07-21T11:54:50.850Z,99.99
2018-07-21T11:56:06.329Z,99.99
2018-07-21T11:57:21.554Z,99.99
2018-07-21T11:58:37.233Z,99.99
2018-07-21T11:59:52.152Z,99.99
2018-07-21T12:01:06.883Z,99.99
2018-07-21T12:02:20.981Z,99.99
2018-07-21T12:03:34.966Z,99.99
2018-07-21T12:04:49.914Z,99.99
2018-07-21T12:06:05.064Z,99.99
2018-07-21T12:07:19.546Z,99.99
2018-07-21T12:08:34.047Z,99.99
2018-07-21T12:09:48.591Z,99.99
2018-07-21T12:11:03.278Z,99.99
2018-07-21T12:12:18.260Z,99.99
2018-07-21T12:13:33.686Z,99.99
2018-07-21T12:14:48.762Z,99.99
2018-07-21T12:16:03.235Z,99.99
2018-07-21T12:17:17.765Z,99.99
2018-07-21T12:18:32.042Z,99.99
2018-07-21T12:19:46.306Z,99.99
2018-07-21T12:21:01.018Z,99.99
2018-07-21T12:22:15.357Z,99.99
2018-07-21T12:23:30.127Z,99.99
2018-07-21T12:24:44.343Z,99.99
2018-07-21T12:25:58.842Z,99.99
2018-07-21T12:27:13.608Z,99.99
2018-07-21T12:28:28.652Z,99.99
2018-07-21T12:29:42.858Z,99.99
2018-07-21T12:30:57.110Z,99.99
2018-07-21T12:32:11.464Z,99.99
2018-07-21T12:33:26.224Z,99.99
2018-07-21T12:34:40.521Z,99.99
2018-07-21T12:35:55.519Z,99.99
2018-07-21T12:37:09.996Z,99.99
2018-07-21T12:38:24.541Z,99.99
2018-07-21T12:39:38.805Z,99.99
2018-07-21T12:40:53.289Z,99.99
2018-07-21T12:42:08.329Z,99.99
2018-07-21T12:43:22.552Z,99.99
2018-07-21T12:44:37.083Z,99.94
2018-07-21T12:45:52.228Z,98.58
2018-07-21T12:47:07.394Z,98.39
2018-07-21T12:48:22.229Z,98
2018-07-21T12:49:36.465Z,96.51
2018-07-21T12:50:50.913Z,96.41
2018-07-21T12:52:05.425Z,96.46
2018-07-21T12:53:20.410Z,96.17
2018-07-21T12:54:34.623Z,96.84
2018-07-21T12:56:02.076Z,95.73
2018-07-21T12:57:17.033Z,94.48
2018-07-21T12:58:32.041Z,94.86
2018-07-21T12:59:46.804Z,93.51
2018-07-21T13:01:01.524Z,93.41
2018-07-21T13:02:16.020Z,92.58
2018-07-21T13:03:30.500Z,93.32
2018-07-21T13:04:45.214Z,93.99
2018-07-21T13:05:59.973Z,93.32
2018-07-21T13:07:13.809Z,92.35
2018-07-21T13:08:28.530Z,92
2018-07-21T13:09:43.602Z,91.82
2018-07-21T13:10:58.456Z,91.04
2018-07-21T13:12:13.229Z,90.94
2018-07-21T13:13:27.510Z,90.8
2018-07-21T13:14:41.775Z,90.5
2018-07-21T13:15:56.226Z,90.07
2018-07-21T13:17:10.777Z,90.65
2018-07-21T13:18:25.390Z,89.83
2018-07-21T13:19:39.900Z,89.73
2018-07-21T13:20:54.477Z,89.25
2018-07-21T13:22:08.189Z,89.25
2018-07-21T13:23:23.550Z,89.58
2018-07-21T13:24:38.713Z,89
2018-07-21T13:25:53.169Z,88.71
2018-07-21T13:27:07.876Z,88.81
2018-07-21T13:28:22.661Z,88.51
2018-07-21T13:29:36.878Z,88.07
2018-07-21T13:30:51.118Z,88.75
2018-07-21T13:32:05.845Z,89.68
2018-07-21T13:33:20.926Z,89.48
2018-07-21T13:34:35.449Z,88.71
2018-07-21T13:35:49.924Z,87.88
2018-07-21T13:37:04.120Z,88.27
2018-07-21T13:38:17.989Z,87.59
2018-07-21T13:39:32.700Z,87.59
2018-07-21T13:40:47.189Z,89.04
2018-07-21T13:42:01.919Z,88.56
2018-07-21T13:43:16.273Z,89.33
2018-07-21T13:44:30.477Z,90.11
2018-07-21T13:45:45.231Z,89.92
2018-07-21T13:47:00.179Z,90.2
2018-07-21T13:48:14.971Z,88.95
2018-07-21T13:49:29.954Z,87.82
2018-07-21T13:50:44.185Z,87.34
2018-07-21T13:51:58.664Z,88.12
2018-07-21T13:53:12.875Z,87.82
2018-07-21T13:54:27.459Z,88.12
2018-07-21T13:55:42.200Z,88.46
2018-07-21T13:56:56.930Z,88.12
2018-07-21T13:58:11.215Z,88.7
2018-07-21T13:59:26.449Z,88.31
2018-07-21T14:00:41.370Z,87.34
2018-07-21T14:01:56.430Z,88.41
2018-07-21T14:03:11.206Z,88.12
2018-07-21T14:04:25.894Z,87.92
2018-07-21T14:05:40.884Z,87.15
2018-07-21T14:06:55.640Z,88.21
2018-07-21T14:08:10.422Z,88.21
2018-07-21T14:09:25.740Z,87.49
2018-07-21T14:10:39.724Z,87.68
2018-07-21T14:11:54.242Z,87.24
2018-07-21T14:13:08.452Z,87.24
2018-07-21T14:14:29.521Z,87.05
2018-07-21T14:15:44.225Z,86.86
2018-07-21T14:16:59.730Z,85.89
2018-07-21T14:18:14.310Z,86.57
2018-07-21T14:19:29.219Z,86.76
2018-07-21T14:20:43.679Z,87.05
2018-07-21T14:21:58.166Z,86.66
2018-07-21T14:23:12.447Z,87.88
2018-07-21T14:24:26.822Z,86.91
2018-07-21T14:25:41.578Z,87.15
2018-07-21T14:26:56.092Z,86.18
2018-07-21T14:28:11.094Z,85.6
2018-07-21T14:29:25.952Z,85.99
2018-07-21T14:30:40.935Z,85.99
2018-07-21T14:31:55.661Z,85.4
2018-07-21T14:33:10.327Z,86.08
2018-07-21T14:34:25.611Z,85.79
2018-07-21T14:35:40.371Z,85.3
2018-07-21T14:36:54.896Z,85.3
2018-07-21T14:38:09.632Z,85.11
2018-07-21T14:39:23.839Z,85.69
2018-07-21T14:40:38.645Z,84.82
2018-07-21T14:41:53.858Z,85.11
2018-07-21T14:43:07.763Z,84.14
2018-07-21T14:44:22.220Z,83.31
2018-07-21T14:45:37.240Z,83.27
2018-07-21T14:46:51.692Z,83.27
2018-07-21T14:48:05.371Z,82.59
2018-07-21T14:49:19.861Z,83.17
2018-07-21T14:50:34.175Z,82.88
2018-07-21T14:51:49.140Z,81.82
2018-07-21T14:53:03.861Z,81.76
2018-07-21T14:54:18.350Z,81.47
2018-07-21T14:55:33.334Z,81.37
2018-07-21T14:56:47.804Z,80.79
2018-07-21T14:58:02.303Z,80.6
2018-07-21T14:59:17.024Z,80.79
2018-07-21T15:00:31.401Z,81.27
2018-07-21T15:01:45.738Z,81.13
2018-07-21T15:03:00.026Z,82.2
2018-07-21T15:04:14.263Z,82.78
2018-07-21T15:05:29.085Z,82.69
2018-07-21T15:06:44.577Z,83.56
2018-07-21T15:07:59.605Z,84.72
2018-07-21T15:09:14.296Z,84.82
2018-07-21T15:10:43.429Z,85.65
2018-07-21T15:11:57.644Z,86.62
2018-07-21T15:13:11.628Z,87.3
2018-07-21T15:14:26.049Z,87.59
2018-07-21T15:15:40.969Z,88.51
2018-07-21T15:16:55.799Z,88.23
2018-07-21T15:18:10.517Z,88.27
2018-07-21T15:19:25.002Z,87.68
2018-07-21T15:20:40.430Z,87.88
2018-07-21T15:21:55.433Z,87.59
2018-07-21T15:23:10.128Z,87.4
2018-07-21T15:24:24.595Z,87.3
2018-07-21T15:25:39.364Z,87.68
2018-07-21T15:26:53.815Z,87.74
2018-07-21T15:28:08.029Z,87.49
2018-07-21T15:29:21.757Z,87.59
2018-07-21T15:30:36.985Z,87.88
2018-07-21T15:31:51.628Z,87.68
2018-07-21T15:33:06.122Z,87.98
2018-07-21T15:34:20.608Z,87.68
2018-07-21T15:35:35.176Z,87.78
2018-07-21T15:36:49.836Z,87.4
2018-07-21T15:38:04.280Z,87.4
2018-07-21T15:39:19.267Z,87.06
2018-07-21T15:40:33.879Z,87.93
2018-07-21T15:41:48.660Z,88.61
2018-07-21T15:43:03.660Z,88.9
2018-07-21T15:44:18.513Z,89.48
2018-07-21T15:45:33.141Z,89.29
2018-07-21T15:46:47.897Z,89.19
2018-07-21T15:48:02.473Z,89.68
2018-07-21T15:49:17.359Z,89.58
2018-07-21T15:50:32.390Z,89.68
2018-07-21T15:51:47.629Z,89.09
2018-07-21T15:53:02.098Z,88.71
2018-07-21T15:54:16.351Z,88.61
2018-07-21T15:55:30.893Z,87.45
2018-07-21T15:56:46.800Z,88.56
2018-07-21T15:58:01.012Z,88.23
2018-07-21T15:59:15.996Z,88.13
2018-07-21T16:00:31.276Z,88.42
2018-07-21T16:01:46.583Z,87.5
2018-07-21T16:03:01.628Z,87.74
2018-07-21T16:04:16.136Z,88.23